LiveATC.Net - Listen to live air traffic control over the Internet!


ICAO: KCPM  IATA: CPM   Airport: Compton/Woodley Airport
City: Compton   State/Province: California
Country: United States   Continent: North America
KHHR METAR Weather: KHHR 152253Z VRB06KT 10SM CLR 23/16 A2987 RMK AO2 SLP114 T02330161
KCPM Flight Activity (FlightAware)
KCPM Airport Info   (iFlightPlanner)
KCPM VFR Sectional Chart   (iFlightPlanner) 
KCPM IFR Low Chart   (iFlightPlanner) 

KCPM CTAF
Feed Status: UP   Listeners: 1
Listen in your browser - HTML5 player (in browser, HTML5)
Click here to listen with your own player (launches your MP3 player)
KCPM CTAF Audio Archives
FacilityFrequency
Compton CTAF123.050

NOTICE

Unauthorized use prohibited. See LiveATC.net Terms of Service


Find LiveATC Audio Streams


Airport/ARTCC Code

Frequency Search
(e.g., 124.400, 128.75)
Site-wide search
 


Browse LiveATC Feeds
Top 50 LiveATC Feeds
LiveATC Feed Map
Bad Weather Areas

LiveATC FAQ
Offer LiveATC feed
Contact LiveATC.net
Press Inquiries

LiveATC on iPhone
LiveATC on Android

Windows Phone
Windows 8/10

LiveATC Mobile
(Mobile browser)

ATC Audio Archives
Interesting Recordings

LiveATC Forums


Home Page
About LiveATC.net
Make a Donation
Terms of Use
Privacy Policy

Canadian Air Freqs

AIRMETs/SIGMETs

FAA Airport Status
Nat'l Airspace Status
Arrival Demand Charts


Server Software By:
Icecast.org
Liquidsoap